Terminal Aerodrome Forecast
Issued by NWS Nashville, TN

Home | Current Version | Previous Version | Text Only | Print | Product List | Glossary On
Versions: 1 2 3 4 5 6 7 8 9 10 11 12 13 14 15 16 17
000
FTUS44 KOHX 272322
TAFBNA
TAF
KBNA 272322Z 2800/2824 16009KT P6SM BKN250
     FM280900 17008KT 6SM -SHRA BKN045
     FM281400 19012G19KT 3SM SHRA VCTS OVC010CB
     FM282100 19013G19KT 4SM BR OVC007=

USA.gov is the U.S. government's official web portal to all federal, state and local government web resources and services.